sensor_id;sensor_type;location;lat;lon;timestamp;pressure;altitude;pressure_sealevel;temperature
48003;BMP280;33768;48.578;11.574;2023-05-14T00:01:43;96473.06;;;9.72
48003;BMP280;33768;48.578;11.574;2023-05-14T00:04:49;96462.38;;;9.74
48003;BMP280;33768;48.578;11.574;2023-05-14T00:07:53;96458.19;;;9.73
48003;BMP280;33768;48.578;11.574;2023-05-14T00:10:57;96461.13;;;9.75
48003;BMP280;33768;48.578;11.574;2023-05-14T00:14:02;96445.94;;;9.80
48003;BMP280;33768;48.578;11.574;2023-05-14T00:17:06;96460.00;;;9.84
48003;BMP280;33768;48.578;11.574;2023-05-14T00:20:10;96456.78;;;9.85
48003;BMP280;33768;48.578;11.574;2023-05-14T00:23:15;96447.84;;;9.85
48003;BMP280;33768;48.578;11.574;2023-05-14T00:26:19;96450.06;;;9.86
48003;BMP280;33768;48.578;11.574;2023-05-14T00:29:24;96443.13;;;9.85
48003;BMP280;33768;48.578;11.574;2023-05-14T00:32:29;96439.66;;;9.85
48003;BMP280;33768;48.578;11.574;2023-05-14T00:35:33;96442.84;;;9.89
48003;BMP280;33768;48.578;11.574;2023-05-14T00:38:38;96447.78;;;9.90
48003;BMP280;33768;48.578;11.574;2023-05-14T00:41:43;96450.50;;;9.90
48003;BMP280;33768;48.578;11.574;2023-05-14T00:44:47;96449.47;;;9.93
48003;BMP280;33768;48.578;11.574;2023-05-14T00:47:52;96440.34;;;9.91
48003;BMP280;33768;48.578;11.574;2023-05-14T00:50:56;96435.63;;;9.91
48003;BMP280;33768;48.578;11.574;2023-05-14T00:54:01;96442.25;;;9.96
48003;BMP280;33768;48.578;11.574;2023-05-14T00:57:05;96439.53;;;9.96
48003;BMP280;33768;48.578;11.574;2023-05-14T01:00:09;96435.53;;;9.97
48003;BMP280;33768;48.578;11.574;2023-05-14T01:03:13;96441.22;;;9.99
48003;BMP280;33768;48.578;11.574;2023-05-14T01:06:43;96439.44;;;10.01
48003;BMP280;33768;48.578;11.574;2023-05-14T01:10:07;96427.47;;;10.04
48003;BMP280;33768;48.578;11.574;2023-05-14T01:13:25;96424.75;;;10.04
48003;BMP280;33768;48.578;11.574;2023-05-14T01:16:32;96439.84;;;10.05
48003;BMP280;33768;48.578;11.574;2023-05-14T01:19:42;96429.69;;;10.05
48003;BMP280;33768;48.578;11.574;2023-05-14T01:22:46;96424.75;;;10.04
48003;BMP280;33768;48.578;11.574;2023-05-14T01:25:50;96426.75;;;10.03
48003;BMP280;33768;48.578;11.574;2023-05-14T01:28:55;96426.03;;;10.03
48003;BMP280;33768;48.578;11.574;2023-05-14T01:32:05;96428.53;;;10.01
48003;BMP280;33768;48.578;11.574;2023-05-14T01:35:10;96415.41;;;9.99
48003;BMP280;33768;48.578;11.574;2023-05-14T01:38:16;96425.56;;;9.99
48003;BMP280;33768;48.578;11.574;2023-05-14T01:41:22;96418.34;;;10.01
48003;BMP280;33768;48.578;11.574;2023-05-14T01:44:28;96424.75;;;10.04
48003;BMP280;33768;48.578;11.574;2023-05-14T01:47:33;96412.16;;;10.01
48003;BMP280;33768;48.578;11.574;2023-05-14T01:50:37;96425.25;;;10.02
48003;BMP280;33768;48.578;11.574;2023-05-14T01:53:41;96412.38;;;10.03
48003;BMP280;33768;48.578;11.574;2023-05-14T01:56:46;96417.09;;;10.02
48003;BMP280;33768;48.578;11.574;2023-05-14T01:59:50;96412.69;;;9.99
48003;BMP280;33768;48.578;11.574;2023-05-14T02:02:54;96415.13;;;10.03
48003;BMP280;33768;48.578;11.574;2023-05-14T02:06:00;96401.25;;;10.01
48003;BMP280;33768;48.578;11.574;2023-05-14T02:09:04;96413.22;;;9.98
48003;BMP280;33768;48.578;11.574;2023-05-14T02:12:09;96412.78;;;9.94
48003;BMP280;33768;48.578;11.574;2023-05-14T02:15:14;96411.72;;;9.97
48003;BMP280;33768;48.578;11.574;2023-05-14T02:18:18;96410.28;;;9.96
48003;BMP280;33768;48.578;11.574;2023-05-14T02:21:23;96398.41;;;9.94
48003;BMP280;33768;48.578;11.574;2023-05-14T02:24:27;96398.69;;;9.90
48003;BMP280;33768;48.578;11.574;2023-05-14T02:27:31;96403.97;;;9.88
48003;BMP280;33768;48.578;11.574;2023-05-14T02:30:35;96401.41;;;9.90
48003;BMP280;33768;48.578;11.574;2023-05-14T02:33:39;96399.25;;;9.89
48003;BMP280;33768;48.578;11.574;2023-05-14T02:36:43;96400.69;;;9.90
48003;BMP280;33768;48.578;11.574;2023-05-14T02:39:47;96389.63;;;10.00
48003;BMP280;33768;48.578;11.574;2023-05-14T02:42:53;96384.69;;;10.12
48003;BMP280;33768;48.578;11.574;2023-05-14T02:45:57;96387.31;;;10.17
48003;BMP280;33768;48.578;11.574;2023-05-14T02:49:01;96391.94;;;10.22
48003;BMP280;33768;48.578;11.574;2023-05-14T02:52:06;96393.13;;;10.27
48003;BMP280;33768;48.578;11.574;2023-05-14T02:55:10;96392.78;;;10.30
48003;BMP280;33768;48.578;11.574;2023-05-14T02:58:14;96383.88;;;10.30
48003;BMP280;33768;48.578;11.574;2023-05-14T03:01:18;96382.59;;;10.30
48003;BMP280;33768;48.578;11.574;2023-05-14T03:04:22;96380.94;;;10.28
48003;BMP280;33768;48.578;11.574;2023-05-14T03:07:26;96381.47;;;10.26
48003;BMP280;33768;48.578;11.574;2023-05-14T03:10:31;96387.16;;;10.28
48003;BMP280;33768;48.578;11.574;2023-05-14T03:13:35;96390.06;;;10.30
48003;BMP280;33768;48.578;11.574;2023-05-14T03:16:40;96379.88;;;10.30
48003;BMP280;33768;48.578;11.574;2023-05-14T03:19:45;96385.16;;;10.29
48003;BMP280;33768;48.578;11.574;2023-05-14T03:22:49;96368.06;;;10.28
48003;BMP280;33768;48.578;11.574;2023-05-14T03:25:52;96368.25;;;10.30
48003;BMP280;33768;48.578;11.574;2023-05-14T03:28:57;96365.00;;;10.31
48003;BMP280;33768;48.578;11.574;2023-05-14T03:32:01;96365.31;;;10.28
48003;BMP280;33768;48.578;11.574;2023-05-14T03:35:06;96362.38;;;10.26
48003;BMP280;33768;48.578;11.574;2023-05-14T03:38:10;96363.09;;;10.27
48003;BMP280;33768;48.578;11.574;2023-05-14T03:41:14;96360.16;;;10.25
48003;BMP280;33768;48.578;11.574;2023-05-14T03:44:19;96364.38;;;10.26
48003;BMP280;33768;48.578;11.574;2023-05-14T03:47:24;96362.88;;;10.25
48003;BMP280;33768;48.578;11.574;2023-05-14T03:50:28;96359.09;;;10.28
48003;BMP280;33768;48.578;11.574;2023-05-14T03:53:32;96357.88;;;10.29
48003;BMP280;33768;48.578;11.574;2023-05-14T03:56:36;96362.50;;;10.33
48003;BMP280;33768;48.578;11.574;2023-05-14T03:59:40;96360.69;;;10.36
48003;BMP280;33768;48.578;11.574;2023-05-14T04:02:45;96367.09;;;10.38
48003;BMP280;33768;48.578;11.574;2023-05-14T04:05:49;96368.34;;;10.37
48003;BMP280;33768;48.578;11.574;2023-05-14T04:08:53;96364.16;;;10.36
48003;BMP280;33768;48.578;11.574;2023-05-14T04:11:57;96365.41;;;10.35
48003;BMP280;33768;48.578;11.574;2023-05-14T04:15:02;96367.09;;;10.38
48003;BMP280;33768;48.578;11.574;2023-05-14T04:18:06;96363.31;;;10.41
48003;BMP280;33768;48.578;11.574;2023-05-14T04:21:10;96363.53;;;10.43
48003;BMP280;33768;48.578;11.574;2023-05-14T04:24:16;96353.03;;;10.47
48003;BMP280;33768;48.578;11.574;2023-05-14T04:27:20;96358.69;;;10.49
48003;BMP280;33768;48.578;11.574;2023-05-14T04:30:24;96354.91;;;10.52
48003;BMP280;33768;48.578;11.574;2023-05-14T04:33:29;96353.66;;;10.53
48003;BMP280;33768;48.578;11.574;2023-05-14T04:36:33;96366.44;;;10.58
48003;BMP280;33768;48.578;11.574;2023-05-14T04:39:37;96362.47;;;10.59
48003;BMP280;33768;48.578;11.574;2023-05-14T04:42:42;96362.78;;;10.56
48003;BMP280;33768;48.578;11.574;2023-05-14T04:45:46;96362.03;;;10.55
48003;BMP280;33768;48.578;11.574;2023-05-14T04:48:50;96364.25;;;10.57
48003;BMP280;33768;48.578;11.574;2023-05-14T04:51:54;96370.44;;;10.57
48003;BMP280;33768;48.578;11.574;2023-05-14T04:54:58;96358.47;;;10.60
48003;BMP280;33768;48.578;11.574;2023-05-14T04:58:03;96367.09;;;10.64
48003;BMP280;33768;48.578;11.574;2023-05-14T05:01:07;96357.13;;;10.66
48003;BMP280;33768;48.578;11.574;2023-05-14T05:04:11;96371.72;;;10.69
48003;BMP280;33768;48.578;11.574;2023-05-14T05:07:16;96354.91;;;10.65
48003;BMP280;33768;48.578;11.574;2023-05-14T05:10:20;96362.69;;;10.61
48003;BMP280;33768;48.578;11.574;2023-05-14T05:13:23;96363.19;;;10.60
48003;BMP280;33768;48.578;11.574;2023-05-14T05:16:28;96372.34;;;10.62
48003;BMP280;33768;48.578;11.574;2023-05-14T05:19:32;96361.19;;;10.60
48003;BMP280;33768;48.578;11.574;2023-05-14T05:22:36;96365.59;;;10.63
48003;BMP280;33768;48.578;11.574;2023-05-14T05:25:40;96353.13;;;10.67
48003;BMP280;33768;48.578;11.574;2023-05-14T05:28:44;96357.72;;;10.72
48003;BMP280;33768;48.578;11.574;2023-05-14T05:31:48;96363.50;;;10.82
48003;BMP280;33768;48.578;11.574;2023-05-14T05:34:52;96361.59;;;10.90
48003;BMP280;33768;48.578;11.574;2023-05-14T05:37:56;96363.44;;;11.07
48003;BMP280;33768;48.578;11.574;2023-05-14T05:41:01;96366.25;;;11.15
48003;BMP280;33768;48.578;11.574;2023-05-14T05:44:05;96366.13;;;11.20
48003;BMP280;33768;48.578;11.574;2023-05-14T05:47:09;96368.00;;;11.25
48003;BMP280;33768;48.578;11.574;2023-05-14T05:50:13;96366.00;;;11.25
48003;BMP280;33768;48.578;11.574;2023-05-14T05:53:17;96361.53;;;11.15
48003;BMP280;33768;48.578;11.574;2023-05-14T05:56:21;96357.72;;;11.18
48003;BMP280;33768;48.578;11.574;2023-05-14T05:59:26;96356.56;;;11.14
48003;BMP280;33768;48.578;11.574;2023-05-14T06:02:30;96355.66;;;11.11
48003;BMP280;33768;48.578;11.574;2023-05-14T06:05:34;96368.16;;;11.07
48003;BMP280;33768;48.578;11.574;2023-05-14T06:08:38;96362.72;;;11.07
48003;BMP280;33768;48.578;11.574;2023-05-14T06:11:42;96358.72;;;11.08
48003;BMP280;33768;48.578;11.574;2023-05-14T06:14:46;96360.47;;;11.18
48003;BMP280;33768;48.578;11.574;2023-05-14T06:17:51;96364.00;;;11.26
48003;BMP280;33768;48.578;11.574;2023-05-14T06:20:55;96361.69;;;11.30
48003;BMP280;33768;48.578;11.574;2023-05-14T06:23:59;96364.19;;;11.41
48003;BMP280;33768;48.578;11.574;2023-05-14T06:27:04;96370.81;;;11.45
48003;BMP280;33768;48.578;11.574;2023-05-14T06:30:08;96368.47;;;11.49
48003;BMP280;33768;48.578;11.574;2023-05-14T06:33:13;96379.59;;;11.51
48003;BMP280;33768;48.578;11.574;2023-05-14T06:36:17;96372.16;;;11.52
48003;BMP280;33768;48.578;11.574;2023-05-14T06:39:22;96376.13;;;11.51
48003;BMP280;33768;48.578;11.574;2023-05-14T06:42:26;96376.69;;;11.49
48003;BMP280;33768;48.578;11.574;2023-05-14T06:45:31;96382.25;;;11.44
48003;BMP280;33768;48.578;11.574;2023-05-14T06:48:35;96374.06;;;11.44
48003;BMP280;33768;48.578;11.574;2023-05-14T06:51:39;96383.75;;;11.45
48003;BMP280;33768;48.578;11.574;2023-05-14T06:54:43;96377.94;;;11.48
48003;BMP280;33768;48.578;11.574;2023-05-14T06:57:47;96373.59;;;11.53
48003;BMP280;33768;48.578;11.574;2023-05-14T07:00:51;96371.34;;;11.64
48003;BMP280;33768;48.578;11.574;2023-05-14T07:03:56;96377.69;;;11.79
48003;BMP280;33768;48.578;11.574;2023-05-14T07:07:00;96376.41;;;12.00
48003;BMP280;33768;48.578;11.574;2023-05-14T07:10:05;96368.28;;;12.35
48003;BMP280;33768;48.578;11.574;2023-05-14T07:13:09;96365.13;;;12.59
48003;BMP280;33768;48.578;11.574;2023-05-14T07:16:13;96364.75;;;12.82
48003;BMP280;33768;48.578;11.574;2023-05-14T07:19:18;96362.63;;;12.96
48003;BMP280;33768;48.578;11.574;2023-05-14T07:22:22;96365.72;;;13.00
48003;BMP280;33768;48.578;11.574;2023-05-14T07:25:26;96353.84;;;12.97
48003;BMP280;33768;48.578;11.574;2023-05-14T07:28:34;96358.41;;;12.95
48003;BMP280;33768;48.578;11.574;2023-05-14T07:31:38;96353.50;;;13.01
48003;BMP280;33768;48.578;11.574;2023-05-14T07:34:43;96350.41;;;13.04
48003;BMP280;33768;48.578;11.574;2023-05-14T07:37:47;96355.19;;;13.11
48003;BMP280;33768;48.578;11.574;2023-05-14T07:40:51;96348.19;;;13.03
48003;BMP280;33768;48.578;11.574;2023-05-14T07:43:56;96342.03;;;13.10
48003;BMP280;33768;48.578;11.574;2023-05-14T07:47:00;96345.69;;;13.12
48003;BMP280;33768;48.578;11.574;2023-05-14T07:50:04;96348.84;;;13.23
48003;BMP280;33768;48.578;11.574;2023-05-14T07:53:10;96342.63;;;13.23
48003;BMP280;33768;48.578;11.574;2023-05-14T07:56:13;96339.91;;;13.23
48003;BMP280;33768;48.578;11.574;2023-05-14T07:59:18;96328.75;;;13.28
48003;BMP280;33768;48.578;11.574;2023-05-14T08:02:22;96322.38;;;13.33
48003;BMP280;33768;48.578;11.574;2023-05-14T08:05:26;96322.06;;;13.74
48003;BMP280;33768;48.578;11.574;2023-05-14T08:08:30;96306.72;;;14.15
48003;BMP280;33768;48.578;11.574;2023-05-14T08:11:34;96308.81;;;14.61
48003;BMP280;33768;48.578;11.574;2023-05-14T08:14:38;96318.44;;;14.76
48003;BMP280;33768;48.578;11.574;2023-05-14T08:17:42;96314.97;;;14.76
48003;BMP280;33768;48.578;11.574;2023-05-14T08:20:46;96314.09;;;14.59
48003;BMP280;33768;48.578;11.574;2023-05-14T08:23:51;96317.84;;;14.39
48003;BMP280;33768;48.578;11.574;2023-05-14T08:26:55;96310.69;;;14.36
48003;BMP280;33768;48.578;11.574;2023-05-14T08:29:59;96310.09;;;14.60
48003;BMP280;33768;48.578;11.574;2023-05-14T08:33:03;96320.53;;;14.54
48003;BMP280;33768;48.578;11.574;2023-05-14T08:36:08;96304.41;;;14.58
48003;BMP280;33768;48.578;11.574;2023-05-14T08:39:12;96304.19;;;14.70
48003;BMP280;33768;48.578;11.574;2023-05-14T08:42:19;96286.97;;;14.77
48003;BMP280;33768;48.578;11.574;2023-05-14T08:45:29;96280.03;;;15.08
48003;BMP280;33768;48.578;11.574;2023-05-14T08:48:39;96284.72;;;15.30
48003;BMP280;33768;48.578;11.574;2023-05-14T08:51:45;96281.47;;;15.72
48003;BMP280;33768;48.578;11.574;2023-05-14T08:54:52;96282.41;;;15.91
48003;BMP280;33768;48.578;11.574;2023-05-14T08:57:57;96281.72;;;16.07
48003;BMP280;33768;48.578;11.574;2023-05-14T09:01:01;96281.50;;;16.13
48003;BMP280;33768;48.578;11.574;2023-05-14T09:04:05;96284.44;;;15.91
48003;BMP280;33768;48.578;11.574;2023-05-14T09:07:12;96282.03;;;15.70
48003;BMP280;33768;48.578;11.574;2023-05-14T09:10:16;96280.03;;;15.71
48003;BMP280;33768;48.578;11.574;2023-05-14T09:13:20;96272.91;;;15.68
48003;BMP280;33768;48.578;11.574;2023-05-14T09:16:24;96280.91;;;15.73
48003;BMP280;33768;48.578;11.574;2023-05-14T09:19:29;96284.75;;;15.78
48003;BMP280;33768;48.578;11.574;2023-05-14T09:22:34;96276.72;;;15.72
48003;BMP280;33768;48.578;11.574;2023-05-14T09:25:38;96269.97;;;15.66
48003;BMP280;33768;48.578;11.574;2023-05-14T09:28:43;96271.88;;;15.80
48003;BMP280;33768;48.578;11.574;2023-05-14T09:31:49;96266.25;;;16.12
48003;BMP280;33768;48.578;11.574;2023-05-14T09:34:55;96264.88;;;16.61
48003;BMP280;33768;48.578;11.574;2023-05-14T09:37:59;96270.22;;;16.76
48003;BMP280;33768;48.578;11.574;2023-05-14T09:41:03;96262.50;;;16.58
48003;BMP280;33768;48.578;11.574;2023-05-14T09:44:07;96268.75;;;16.41
48003;BMP280;33768;48.578;11.574;2023-05-14T09:47:14;96275.09;;;16.10
48003;BMP280;33768;48.578;11.574;2023-05-14T09:50:17;96265.84;;;15.98
48003;BMP280;33768;48.578;11.574;2023-05-14T09:53:22;96256.19;;;16.14
48003;BMP280;33768;48.578;11.574;2023-05-14T09:56:27;96263.84;;;16.83
48003;BMP280;33768;48.578;11.574;2023-05-14T09:59:31;96251.47;;;17.43
48003;BMP280;33768;48.578;11.574;2023-05-14T10:02:36;96251.56;;;17.26
48003;BMP280;33768;48.578;11.574;2023-05-14T10:05:41;96248.41;;;17.13
48003;BMP280;33768;48.578;11.574;2023-05-14T10:08:47;96249.00;;;17.12
48003;BMP280;33768;48.578;11.574;2023-05-14T10:11:52;96252.53;;;17.05
48003;BMP280;33768;48.578;11.574;2023-05-14T10:15:03;96260.53;;;16.84
48003;BMP280;33768;48.578;11.574;2023-05-14T10:18:15;96252.19;;;16.91
48003;BMP280;33768;48.578;11.574;2023-05-14T10:21:21;96247.03;;;17.57
48003;BMP280;33768;48.578;11.574;2023-05-14T10:24:26;96239.41;;;18.66
48003;BMP280;33768;48.578;11.574;2023-05-14T10:27:30;96233.88;;;19.03
48003;BMP280;33768;48.578;11.574;2023-05-14T10:30:34;96233.03;;;18.73
48003;BMP280;33768;48.578;11.574;2023-05-14T10:33:46;96231.16;;;18.47
48003;BMP280;33768;48.578;11.574;2023-05-14T10:36:51;96227.50;;;18.45
48003;BMP280;33768;48.578;11.574;2023-05-14T10:42:59;96236.63;;;18.19
48003;BMP280;33768;48.578;11.574;2023-05-14T10:46:04;96233.00;;;18.07
48003;BMP280;33768;48.578;11.574;2023-05-14T10:49:09;96227.88;;;18.04
48003;BMP280;33768;48.578;11.574;2023-05-14T10:52:16;96224.41;;;17.68
48003;BMP280;33768;48.578;11.574;2023-05-14T10:55:21;96214.59;;;17.39
48003;BMP280;33768;48.578;11.574;2023-05-14T10:58:25;96216.41;;;18.07
48003;BMP280;33768;48.578;11.574;2023-05-14T11:01:30;96216.91;;;19.76
48003;BMP280;33768;48.578;11.574;2023-05-14T11:04:34;96202.56;;;19.89
48003;BMP280;33768;48.578;11.574;2023-05-14T11:07:57;96207.72;;;19.34
48003;BMP280;33768;48.578;11.574;2023-05-14T11:11:01;96197.47;;;19.07
48003;BMP280;33768;48.578;11.574;2023-05-14T11:14:05;96202.88;;;20.45
48003;BMP280;33768;48.578;11.574;2023-05-14T11:17:10;96192.63;;;21.89
48003;BMP280;33768;48.578;11.574;2023-05-14T11:20:14;96187.34;;;22.76
48003;BMP280;33768;48.578;11.574;2023-05-14T11:23:22;96182.88;;;23.21
48003;BMP280;33768;48.578;11.574;2023-05-14T11:26:27;96181.53;;;22.72
48003;BMP280;33768;48.578;11.574;2023-05-14T11:29:31;96184.53;;;21.70
48003;BMP280;33768;48.578;11.574;2023-05-14T11:32:35;96183.28;;;21.28
48003;BMP280;33768;48.578;11.574;2023-05-14T11:35:40;96176.09;;;21.46
48003;BMP280;33768;48.578;11.574;2023-05-14T11:38:48;96178.63;;;21.42
48003;BMP280;33768;48.578;11.574;2023-05-14T11:41:54;96178.50;;;21.74
48003;BMP280;33768;48.578;11.574;2023-05-14T11:44:58;96174.38;;;22.56
48003;BMP280;33768;48.578;11.574;2023-05-14T11:48:10;96164.84;;;22.72
48003;BMP280;33768;48.578;11.574;2023-05-14T11:51:14;96168.75;;;22.31
48003;BMP280;33768;48.578;11.574;2023-05-14T11:54:18;96169.91;;;21.36
48003;BMP280;33768;48.578;11.574;2023-05-14T11:57:23;96162.34;;;20.29
48003;BMP280;33768;48.578;11.574;2023-05-14T12:00:26;96171.47;;;19.60
48003;BMP280;33768;48.578;11.574;2023-05-14T12:03:30;96157.88;;;19.43
48003;BMP280;33768;48.578;11.574;2023-05-14T12:06:34;96146.00;;;19.32
48003;BMP280;33768;48.578;11.574;2023-05-14T12:09:44;96153.72;;;19.33
48003;BMP280;33768;48.578;11.574;2023-05-14T12:12:54;96149.34;;;19.60
48003;BMP280;33768;48.578;11.574;2023-05-14T12:16:00;96156.91;;;19.30
48003;BMP280;33768;48.578;11.574;2023-05-14T12:19:07;96145.13;;;18.71
48003;BMP280;33768;48.578;11.574;2023-05-14T12:22:20;96151.16;;;18.40
48003;BMP280;33768;48.578;11.574;2023-05-14T12:25:24;96141.41;;;18.20
48003;BMP280;33768;48.578;11.574;2023-05-14T12:28:29;96141.41;;;18.20
48003;BMP280;33768;48.578;11.574;2023-05-14T12:31:34;96135.88;;;18.39
48003;BMP280;33768;48.578;11.574;2023-05-14T12:34:39;96126.78;;;18.94
48003;BMP280;33768;48.578;11.574;2023-05-14T12:37:43;96115.69;;;20.05
48003;BMP280;33768;48.578;11.574;2023-05-14T12:40:47;96112.72;;;21.42
48003;BMP280;33768;48.578;11.574;2023-05-14T12:43:51;96102.41;;;21.90
48003;BMP280;33768;48.578;11.574;2023-05-14T12:46:55;96093.03;;;22.08
48003;BMP280;33768;48.578;11.574;2023-05-14T12:50:00;96090.09;;;22.29
48003;BMP280;33768;48.578;11.574;2023-05-14T12:53:04;96079.53;;;22.88
48003;BMP280;33768;48.578;11.574;2023-05-14T12:56:09;96060.97;;;23.57
48003;BMP280;33768;48.578;11.574;2023-05-14T12:59:13;96066.78;;;24.03
48003;BMP280;33768;48.578;11.574;2023-05-14T13:02:17;96056.16;;;23.99
48003;BMP280;33768;48.578;11.574;2023-05-14T13:05:22;96054.22;;;23.35
48003;BMP280;33768;48.578;11.574;2023-05-14T13:08:26;96049.13;;;23.56
48003;BMP280;33768;48.578;11.574;2023-05-14T13:11:30;96048.09;;;24.05
48003;BMP280;33768;48.578;11.574;2023-05-14T13:14:35;96045.94;;;24.46
48003;BMP280;33768;48.578;11.574;2023-05-14T13:17:39;96041.16;;;24.48
48003;BMP280;33768;48.578;11.574;2023-05-14T13:20:45;96033.44;;;24.90
48003;BMP280;33768;48.578;11.574;2023-05-14T13:23:50;96019.56;;;25.23
48003;BMP280;33768;48.578;11.574;2023-05-14T13:26:54;96027.69;;;25.49
48003;BMP280;33768;48.578;11.574;2023-05-14T13:29:58;96015.63;;;25.93
48003;BMP280;33768;48.578;11.574;2023-05-14T13:33:02;96022.59;;;25.29
48003;BMP280;33768;48.578;11.574;2023-05-14T13:36:07;96011.50;;;24.70
48003;BMP280;33768;48.578;11.574;2023-05-14T13:39:11;96014.00;;;24.64
48003;BMP280;33768;48.578;11.574;2023-05-14T13:42:15;96009.38;;;25.14
48003;BMP280;33768;48.578;11.574;2023-05-14T13:45:19;95999.91;;;24.75
48003;BMP280;33768;48.578;11.574;2023-05-14T13:48:24;95996.22;;;23.85
48003;BMP280;33768;48.578;11.574;2023-05-14T13:51:28;95995.25;;;23.39
48003;BMP280;33768;48.578;11.574;2023-05-14T13:54:32;95990.63;;;23.56
48003;BMP280;33768;48.578;11.574;2023-05-14T13:57:36;95999.09;;;23.19
48003;BMP280;33768;48.578;11.574;2023-05-14T14:00:42;95985.13;;;23.58
48003;BMP280;33768;48.578;11.574;2023-05-14T14:03:46;95988.44;;;23.55
48003;BMP280;33768;48.578;11.574;2023-05-14T14:06:50;95987.81;;;23.43
48003;BMP280;33768;48.578;11.574;2023-05-14T14:09:55;95976.88;;;23.47
48003;BMP280;33768;48.578;11.574;2023-05-14T14:12:59;95977.94;;;23.95
48003;BMP280;33768;48.578;11.574;2023-05-14T14:16:03;95982.97;;;23.44
48003;BMP280;33768;48.578;11.574;2023-05-14T14:19:09;95970.72;;;23.22
48003;BMP280;33768;48.578;11.574;2023-05-14T14:22:12;95968.75;;;23.64
48003;BMP280;33768;48.578;11.574;2023-05-14T14:25:19;95966.06;;;23.95
48003;BMP280;33768;48.578;11.574;2023-05-14T14:28:24;95960.22;;;23.07
48003;BMP280;33768;48.578;11.574;2023-05-14T14:31:28;95959.19;;;22.50
48003;BMP280;33768;48.578;11.574;2023-05-14T14:34:32;95960.81;;;21.92
48003;BMP280;33768;48.578;11.574;2023-05-14T14:37:36;95969.50;;;21.03
48003;BMP280;33768;48.578;11.574;2023-05-14T14:40:40;95969.88;;;20.75
48003;BMP280;33768;48.578;11.574;2023-05-14T14:43:44;95965.00;;;20.42
48003;BMP280;33768;48.578;11.574;2023-05-14T14:46:48;95974.75;;;19.88
48003;BMP280;33768;48.578;11.574;2023-05-14T14:49:53;95977.47;;;19.56
48003;BMP280;33768;48.578;11.574;2023-05-14T14:52:57;95971.22;;;19.35
48003;BMP280;33768;48.578;11.574;2023-05-14T14:56:01;95961.84;;;19.40
48003;BMP280;33768;48.578;11.574;2023-05-14T14:59:05;95958.50;;;19.94
48003;BMP280;33768;48.578;11.574;2023-05-14T15:02:09;95944.44;;;20.68
48003;BMP280;33768;48.578;11.574;2023-05-14T15:05:14;95948.34;;;21.33
48003;BMP280;33768;48.578;11.574;2023-05-14T15:08:18;95959.16;;;21.87
48003;BMP280;33768;48.578;11.574;2023-05-14T15:11:23;95953.78;;;21.78
48003;BMP280;33768;48.578;11.574;2023-05-14T15:14:27;95967.59;;;20.95
48003;BMP280;33768;48.578;11.574;2023-05-14T15:17:31;95970.03;;;19.59
48003;BMP280;33768;48.578;11.574;2023-05-14T15:20:36;95988.16;;;18.40
48003;BMP280;33768;48.578;11.574;2023-05-14T15:23:40;96019.47;;;17.58
48003;BMP280;33768;48.578;11.574;2023-05-14T15:26:44;96014.28;;;17.08
48003;BMP280;33768;48.578;11.574;2023-05-14T15:29:48;96033.53;;;16.54
48003;BMP280;33768;48.578;11.574;2023-05-14T15:32:52;96042.28;;;15.91
48003;BMP280;33768;48.578;11.574;2023-05-14T15:35:57;96041.31;;;15.45
48003;BMP280;33768;48.578;11.574;2023-05-14T15:39:01;96040.22;;;15.24
48003;BMP280;33768;48.578;11.574;2023-05-14T15:42:05;96037.09;;;15.03
48003;BMP280;33768;48.578;11.574;2023-05-14T15:45:11;96042.66;;;14.96
48003;BMP280;33768;48.578;11.574;2023-05-14T15:48:15;96047.91;;;14.85
48003;BMP280;33768;48.578;11.574;2023-05-14T15:51:20;96048.72;;;14.70
48003;BMP280;33768;48.578;11.574;2023-05-14T15:54:24;96049.56;;;14.56
48003;BMP280;33768;48.578;11.574;2023-05-14T15:57:29;96056.97;;;14.46
48003;BMP280;33768;48.578;11.574;2023-05-14T16:00:34;96060.34;;;14.30
48003;BMP280;33768;48.578;11.574;2023-05-14T16:03:38;96054.22;;;14.15
48003;BMP280;33768;48.578;11.574;2023-05-14T16:06:42;96064.00;;;13.94
48003;BMP280;33768;48.578;11.574;2023-05-14T16:09:48;96065.31;;;13.78
48003;BMP280;33768;48.578;11.574;2023-05-14T16:12:52;96058.63;;;13.64
48003;BMP280;33768;48.578;11.574;2023-05-14T16:15:56;96055.69;;;13.62
48003;BMP280;33768;48.578;11.574;2023-05-14T16:19:02;96058.63;;;13.64
48003;BMP280;33768;48.578;11.574;2023-05-14T16:22:06;96055.69;;;13.62
48003;BMP280;33768;48.578;11.574;2023-05-14T16:25:10;96063.38;;;13.64
48003;BMP280;33768;48.578;11.574;2023-05-14T16:28:14;96066.81;;;13.72
48003;BMP280;33768;48.578;11.574;2023-05-14T16:31:18;96083.28;;;13.72
48003;BMP280;33768;48.578;11.574;2023-05-14T16:34:22;96078.91;;;13.69
48003;BMP280;33768;48.578;11.574;2023-05-14T16:37:26;96074.13;;;13.69
48003;BMP280;33768;48.578;11.574;2023-05-14T16:40:31;96080.16;;;13.68
48003;BMP280;33768;48.578;11.574;2023-05-14T16:43:35;96083.28;;;13.64
48003;BMP280;33768;48.578;11.574;2023-05-14T16:46:39;96088.25;;;13.58
48003;BMP280;33768;48.578;11.574;2023-05-14T16:49:43;96096.09;;;13.54
48003;BMP280;33768;48.578;11.574;2023-05-14T16:52:48;96101.97;;;13.51
48003;BMP280;33768;48.578;11.574;2023-05-14T16:55:52;96094.28;;;13.49
48003;BMP280;33768;48.578;11.574;2023-05-14T16:58:56;96095.59;;;13.48
48003;BMP280;33768;48.578;11.574;2023-05-14T17:02:00;96087.16;;;13.54
48003;BMP280;33768;48.578;11.574;2023-05-14T17:05:04;96086.56;;;13.63
48003;BMP280;33768;48.578;11.574;2023-05-14T17:08:09;96086.94;;;13.67
48003;BMP280;33768;48.578;11.574;2023-05-14T17:11:13;96081.47;;;13.59
48003;BMP280;33768;48.578;11.574;2023-05-14T17:14:16;96096.09;;;13.54
48003;BMP280;33768;48.578;11.574;2023-05-14T17:17:21;96101.81;;;13.42
48003;BMP280;33768;48.578;11.574;2023-05-14T17:20:26;96096.53;;;13.29
48003;BMP280;33768;48.578;11.574;2023-05-14T17:23:30;96104.75;;;13.21
48003;BMP280;33768;48.578;11.574;2023-05-14T17:26:34;96100.00;;;13.22
48003;BMP280;33768;48.578;11.574;2023-05-14T17:29:40;96101.47;;;13.23
48003;BMP280;33768;48.578;11.574;2023-05-14T17:32:44;96102.00;;;13.21